Time;durP1;ratioP1;P1;durP2;ratioP2;P2;SDS_P1;SDS_P2;PMS_P1;PMS_P2;Temp;Humidity;BMP_temperature;BMP_pressure;BME280_temperature;BME280_humidity;BME280_pressure;Samples;Min_cycle;Max_cycle;Signal;HPM_P1;HPM_P2
2021/07/25 00:08:54;;;;;;;11.2;9.2;;;;;;;16.82;100;98335.14;;;;
2021/07/25 00:18:53;;;;;;;14.9;12.2;;;;;;;16.77;100;98356.38;;;;
2021/07/25 00:28:53;;;;;;;13.7;12.3;;;;;;;16.61;100;98348.25;;;;
2021/07/25 00:38:51;;;;;;;18.1;11.8;;;;;;;16.38;100;98330.95;;;;
2021/07/25 00:48:50;;;;;;;12.9;9.7;;;;;;;16.24;100;98320.52;;;;
2021/07/25 00:58:49;;;;;;;14.7;11.1;;;;;;;16.19;100;98314.53;;;;
2021/07/25 01:08:49;;;;;;;12.4;10.2;;;;;;;16.03;100;98301.73;;;;
2021/07/25 01:18:48;;;;;;;15.6;11.8;;;;;;;15.93;100;98313.09;;;;
2021/07/25 01:28:48;;;;;;;14.4;12.1;;;;;;;15.73;100;98310.61;;;;
2021/07/25 01:38:48;;;;;;;20.6;11.3;;;;;;;15.7;100;98305.88;;;;
2021/07/25 01:48:46;;;;;;;15.2;13.4;;;;;;;15.66;100;98303.06;;;;
2021/07/25 01:58:46;;;;;;;15;11.7;;;;;;;15.73;100;98316.84;;;;
2021/07/25 02:08:45;;;;;;;23.9;15.7;;;;;;;15.83;100;98312.81;;;;
2021/07/25 02:18:45;;;;;;;12.4;11;;;;;;;15.91;100;98311.88;;;;
2021/07/25 02:28:44;;;;;;;19.8;10;;;;;;;15.89;100;98301.37;;;;
2021/07/25 02:38:44;;;;;;;11.3;10.2;;;;;;;15.85;100;98302.41;;;;
2021/07/25 02:48:43;;;;;;;12.7;8.4;;;;;;;15.78;100;98292.14;;;;
2021/07/25 02:58:42;;;;;;;10.2;7.7;;;;;;;15.8;100;98286.34;;;;
2021/07/25 03:08:42;;;;;;;15.8;9.7;;;;;;;15.85;100;98299.69;;;;
2021/07/25 03:18:41;;;;;;;22.6;11.5;;;;;;;15.76;100;98301.79;;;;
2021/07/25 03:28:41;;;;;;;15.1;10.9;;;;;;;15.71;100;98304.74;;;;
2021/07/25 03:38:40;;;;;;;11.9;10.6;;;;;;;15.69;100;98315.19;;;;
2021/07/25 03:48:39;;;;;;;9.2;7;;;;;;;15.74;100;98307.55;;;;
2021/07/25 03:58:39;;;;;;;9.3;6.7;;;;;;;16;100;98317.95;;;;
2021/07/25 04:08:38;;;;;;;12;7.7;;;;;;;16.23;100;98332.52;;;;
2021/07/25 04:18:38;;;;;;;12.9;6.9;;;;;;;16.58;100;98335.35;;;;
2021/07/25 04:28:37;;;;;;;10.2;7;;;;;;;16.97;100;98342.47;;;;
2021/07/25 04:38:37;;;;;;;10.2;6.8;;;;;;;17.17;100;98335.14;;;;
2021/07/25 04:48:36;;;;;;;9.7;8;;;;;;;17.26;100;98324.02;;;;
2021/07/25 04:58:37;;;;;;;19.6;9;;;;;;;17.25;100;98320.5;;;;
2021/07/25 05:08:36;;;;;;;10.9;8.3;;;;;;;17.38;100;98318.45;;;;
2021/07/25 05:18:35;;;;;;;10.8;8.7;;;;;;;17.57;100;98308.36;;;;
2021/07/25 05:28:35;;;;;;;12.5;8.3;;;;;;;17.98;100;98317.69;;;;
2021/07/25 05:38:34;;;;;;;12.1;9.3;;;;;;;18.73;100;98318.95;;;;
2021/07/25 05:48:34;;;;;;;12.1;8.4;;;;;;;19.38;100;98311.26;;;;
2021/07/25 05:58:34;;;;;;;9.5;8.5;;;;;;;19.96;100;98309.59;;;;
2021/07/25 06:08:34;;;;;;;9.8;7;;;;;;;20.66;100;98321.56;;;;
2021/07/25 06:18:34;;;;;;;11.6;8.9;;;;;;;21.16;100;98323.5;;;;
2021/07/25 06:28:34;;;;;;;8.7;7.1;;;;;;;21.67;100;98331.55;;;;
2021/07/25 06:38:34;;;;;;;10.2;8;;;;;;;22.17;100;98335.25;;;;
2021/07/25 06:48:35;;;;;;;9.9;8.6;;;;;;;22.65;100;98332.92;;;;
2021/07/25 06:58:35;;;;;;;14.5;8.9;;;;;;;23.02;100;98330.54;;;;
2021/07/25 07:08:36;;;;;;;12.8;8.5;;;;;;;23.43;100;98324.55;;;;
2021/07/25 07:18:36;;;;;;;11;8.2;;;;;;;23.88;100;98318.05;;;;
2021/07/25 07:28:37;;;;;;;10.3;7.6;;;;;;;24.46;100;98316.52;;;;
2021/07/25 07:38:37;;;;;;;10;8;;;;;;;25.17;100;98322.16;;;;
2021/07/25 07:48:38;;;;;;;11.9;7.6;;;;;;;25.8;100;98306.84;;;;
2021/07/25 07:58:38;;;;;;;10.3;6.3;;;;;;;26.42;100;98320.15;;;;
2021/07/25 08:08:39;;;;;;;8.9;6.3;;;;;;;27.02;100;98312.84;;;;
2021/07/25 08:18:40;;;;;;;8.2;5.9;;;;;;;27.2;96.6709;98318.03;;;;
2021/07/25 08:28:41;;;;;;;8.1;6.2;;;;;;;27.86;89.88672;98324.22;;;;
2021/07/25 08:38:42;;;;;;;11.8;5.8;;;;;;;28.21;82.39063;98319.91;;;;
2021/07/25 08:48:44;;;;;;;9.8;6.5;;;;;;;28.39;75.44922;98327.8;;;;
2021/07/25 08:58:44;;;;;;;7.5;5.1;;;;;;;29.18;69.24121;98333.73;;;;
2021/07/25 09:08:45;;;;;;;8.7;5.8;;;;;;;29.41;70.8457;98336.28;;;;
2021/07/25 09:18:47;;;;;;;9.5;6.6;;;;;;;29.41;74.2041;98338.27;;;;
2021/07/25 09:28:48;;;;;;;10.1;6.7;;;;;;;29.8;72.03906;98343.5;;;;
2021/07/25 09:38:49;;;;;;;9.1;6.9;;;;;;;29.48;74.21582;98351.96;;;;
2021/07/25 09:48:51;;;;;;;7.5;5.2;;;;;;;29.35;76.69336;98353.92;;;;
2021/07/25 09:58:52;;;;;;;12.1;7.2;;;;;;;29.13;79.84277;98353.67;;;;
2021/07/25 10:08:53;;;;;;;8.3;6.2;;;;;;;27.83;81.17383;98358.32;;;;
2021/07/25 10:18:55;;;;;;;9.2;6.6;;;;;;;27.55;81.62598;98385.8;;;;
2021/07/25 10:28:56;;;;;;;10.4;7.7;;;;;;;28.09;81.79395;98375.2;;;;
2021/07/25 10:38:57;;;;;;;12.9;7.5;;;;;;;28.33;82.08398;98382.18;;;;
2021/07/25 10:48:58;;;;;;;7.9;5.4;;;;;;;28.52;83.72461;98383.34;;;;
2021/07/25 10:58:59;;;;;;;8.9;6.7;;;;;;;27.84;83.54297;98395.88;;;;
2021/07/25 11:09:01;;;;;;;9.3;6.3;;;;;;;27.86;82.91406;98396.24;;;;
2021/07/25 11:19:02;;;;;;;9.3;6.3;;;;;;;28.21;81.00684;98410.58;;;;
2021/07/25 11:29:03;;;;;;;9.4;6.1;;;;;;;27.78;80.93066;98394.03;;;;
2021/07/25 11:39:04;;;;;;;8.9;6.1;;;;;;;27.25;84.37012;98397.78;;;;
2021/07/25 11:49:05;;;;;;;9.5;7.2;;;;;;;27;88.89941;98406.55;;;;
2021/07/25 11:59:06;;;;;;;8.5;5.6;;;;;;;26.12;89.08984;98413.34;;;;
2021/07/25 12:09:07;;;;;;;7;5.1;;;;;;;25.82;87.14355;98419.64;;;;
2021/07/25 12:19:08;;;;;;;8.8;5.1;;;;;;;25.36;85.04297;98425.63;;;;
2021/07/25 12:29:09;;;;;;;7.3;4.7;;;;;;;25.14;89.2334;98421.5;;;;
2021/07/25 12:39:10;;;;;;;8.3;5.6;;;;;;;25.33;90.99219;98412.66;;;;
2021/07/25 12:49:10;;;;;;;8.6;5.2;;;;;;;25.51;91.5625;98399.5;;;;
2021/07/25 12:59:12;;;;;;;8.8;6.4;;;;;;;25.71;91.91602;98394.92;;;;
2021/07/25 13:09:12;;;;;;;9.6;6.3;;;;;;;26.04;88.85449;98394.09;;;;
2021/07/25 13:19:13;;;;;;;8.2;5.5;;;;;;;25.85;89.74609;98388.44;;;;
2021/07/25 13:29:14;;;;;;;7.7;5.3;;;;;;;25.59;89.75195;98394.66;;;;
2021/07/25 13:39:15;;;;;;;7.9;5.4;;;;;;;24.83;93.67578;98376.47;;;;
2021/07/25 13:49:15;;;;;;;9.1;7.3;;;;;;;24.32;100;98377.23;;;;
2021/07/25 13:59:16;;;;;;;7.7;5.4;;;;;;;23.83;100;98361.73;;;;
2021/07/25 14:09:17;;;;;;;9.8;6.7;;;;;;;23.48;100;98346.95;;;;
2021/07/25 14:19:17;;;;;;;10.1;7.9;;;;;;;23.03;100;98334.08;;;;
2021/07/25 14:29:18;;;;;;;10.3;6.6;;;;;;;22.65;100;98324.67;;;;
2021/07/25 14:39:18;;;;;;;11.2;6.9;;;;;;;22.61;100;98317.6;;;;
2021/07/25 14:49:18;;;;;;;7.8;6.5;;;;;;;22.63;100;98320.76;;;;
2021/07/25 14:59:19;;;;;;;8;6.5;;;;;;;22.45;100;98312.52;;;;
2021/07/25 15:09:19;;;;;;;10.8;6.2;;;;;;;22.5;100;98295.63;;;;
2021/07/25 15:19:20;;;;;;;8.6;6.5;;;;;;;22.46;100;98300.34;;;;
2021/07/25 15:29:21;;;;;;;10.8;7.5;;;;;;;22.61;100;98287.38;;;;
2021/07/25 15:39:20;;;;;;;9;7;;;;;;;22.86;100;98280.72;;;;
2021/07/25 15:49:21;;;;;;;15.8;7;;;;;;;23.46;100;98253.02;;;;
2021/07/25 15:59:21;;;;;;;7.4;5.7;;;;;;;23.75;99.37012;98250.9;;;;
2021/07/25 16:09:22;;;;;;;8.4;6.6;;;;;;;23.95;97.21973;98243.67;;;;
2021/07/25 16:19:22;;;;;;;8.7;5.4;;;;;;;24.36;96.08105;98235.53;;;;
2021/07/25 16:29:23;;;;;;;10.9;5.5;;;;;;;26.63;88.74609;98230.55;;;;
2021/07/25 16:39:24;;;;;;;10.8;5.8;;;;;;;28.46;77.54102;98225.05;;;;
2021/07/25 16:49:25;;;;;;;9.8;5.4;;;;;;;30;70.80664;98225.81;;;;
2021/07/25 16:59:26;;;;;;;8.8;5.5;;;;;;;30.08;68.60938;98229.93;;;;
2021/07/25 17:09:28;;;;;;;8.3;5.4;;;;;;;29.78;71.81152;98223.67;;;;
2021/07/25 17:19:30;;;;;;;8.8;6.2;;;;;;;30.18;67.73828;98221.25;;;;
2021/07/25 17:29:31;;;;;;;11.5;6.7;;;;;;;28.16;75.40039;98212.32;;;;
2021/07/25 17:39:32;;;;;;;9;5.5;;;;;;;26.56;82.75781;98202.25;;;;
2021/07/25 17:49:36;;;;;;;9.4;6;;;;;;;25.57;89.79492;98187.3;;;;
2021/07/25 17:59:38;;;;;;;7.6;6;;;;;;;24.83;94.37109;98170.5;;;;
2021/07/25 18:09:35;;;;;;;11.9;7.1;;;;;;;24.02;97.69531;98172.05;;;;
2021/07/25 18:19:35;;;;;;;10.5;6.1;;;;;;;23.25;100;98167.86;;;;
2021/07/25 18:29:36;;;;;;;11.6;7.8;;;;;;;22.56;100;98170.48;;;;
2021/07/25 18:39:36;;;;;;;20.6;15.5;;;;;;;21.92;100;98173.3;;;;
2021/07/25 18:49:37;;;;;;;10.8;8;;;;;;;21.28;100;98175.13;;;;
2021/07/25 18:59:37;;;;;;;10;7.9;;;;;;;20.72;100;98183.13;;;;
2021/07/25 19:09:37;;;;;;;17.6;11.4;;;;;;;20.38;100;98193.47;;;;
2021/07/25 19:19:37;;;;;;;11.6;8.2;;;;;;;20.05;100;98205.34;;;;
2021/07/25 19:29:37;;;;;;;18;12.3;;;;;;;19.8;100;98201.6;;;;
2021/07/25 19:39:37;;;;;;;19.3;11.5;;;;;;;19.56;100;98194.75;;;;
2021/07/25 19:49:37;;;;;;;12.2;7.8;;;;;;;19.27;100;98184.64;;;;
2021/07/25 19:59:38;;;;;;;13.8;9.8;;;;;;;19.04;100;98171.13;;;;
2021/07/25 20:09:37;;;;;;;10.4;9.3;;;;;;;18.86;100;98165.45;;;;
2021/07/25 20:19:37;;;;;;;11.8;8.4;;;;;;;18.73;100;98177.78;;;;
2021/07/25 20:29:36;;;;;;;11.9;10.6;;;;;;;18.72;100;98172.68;;;;
2021/07/25 20:39:38;;;;;;;12.8;8.9;;;;;;;18.75;100;98171.94;;;;
2021/07/25 20:49:36;;;;;;;14.6;11.2;;;;;;;18.65;100;98167.92;;;;
2021/07/25 20:59:36;;;;;;;11.9;10.4;;;;;;;18.89;100;98172.11;;;;
2021/07/25 21:09:36;;;;;;;10.8;8.9;;;;;;;18.86;100;98160;;;;
2021/07/25 21:19:35;;;;;;;12.5;8.3;;;;;;;18.77;100;98161.45;;;;
2021/07/25 21:29:35;;;;;;;9.6;8.4;;;;;;;18.65;100;98151.54;;;;
2021/07/25 21:39:35;;;;;;;13;11.2;;;;;;;18.58;100;98124.16;;;;
2021/07/25 21:49:35;;;;;;;11.9;9.5;;;;;;;18.59;100;98123.8;;;;
2021/07/25 21:59:35;;;;;;;10.7;8.3;;;;;;;18.69;100;98100.51;;;;
2021/07/25 22:09:39;;;;;;;10;8.5;;;;;;;18.73;100;98103.28;;;;
2021/07/25 22:19:35;;;;;;;12.7;10.6;;;;;;;18.71;100;98092.72;;;;
2021/07/25 22:29:35;;;;;;;14.5;9.9;;;;;;;18.76;100;98114.24;;;;
2021/07/25 22:39:35;;;;;;;12.9;9.9;;;;;;;18.93;100;98119.12;;;;
2021/07/25 22:49:33;;;;;;;16.5;8.9;;;;;;;18.84;100;98104.19;;;;
2021/07/25 22:59:33;;;;;;;10.2;8;;;;;;;18.84;100;98115.12;;;;
2021/07/25 23:09:33;;;;;;;13.4;10.2;;;;;;;18.62;100;98141.37;;;;
2021/07/25 23:19:32;;;;;;;10;9;;;;;;;18.53;100;98174.38;;;;
2021/07/25 23:29:32;;;;;;;12.5;9.9;;;;;;;18.45;100;98199.99;;;;
2021/07/25 23:39:32;;;;;;;13.3;11.1;;;;;;;18.44;100;98217.52;;;;
2021/07/25 23:49:32;;;;;;;13.3;8.7;;;;;;;18.31;100;98209.91;;;;
2021/07/25 23:59:31;;;;;;;12.3;9.7;;;;;;;18.53;100;98218.05;;;;
